Bookmark and Share
Track history (hours):
 

Ce_breeze

Last reported at 2014-Mar-27 05:31 UTC. Time now 2014-Apr-19 09:29 UTC.
Position N 30°22' E 032°23'.
Warning: this ship's position is 23 days out of date.

Length 240 m; draft 13.9 m.

Type: Tanker. MMSI: 636010400.

NotesDate/timePositionNaut miles runAvg speedWind from/ knotsBaromVisibWave heightAir tempDewpointWater temp
2014-Mar-27 05:31N 30°22' E 032°23'165 3.8
2014-Mar-25 10:20N 32°25' E 030°14'5711.9
2014-Mar-25 05:33N 32°34' E 029°07'  
2014-Mar-22 17:24N 35°49' E 015°21'2111.5
2014-Mar-22 15:33N 35°58' E 014°57'1111.4
2014-Mar-22 14:33N 35°59' E 014°43'6 5.7
2014-Mar-22 13:33N 35°59' E 014°36'6 6.3
2014-Mar-22 12:33N 36°03' E 014°30'1311.3
2014-Mar-22 11:26N 36°09' E 014°16'1011.5
2014-Mar-22 10:33N 36°13' E 014°05'1111.2
2014-Mar-22 09:34N 36°18' E 013°52'1111.2
2014-Mar-22 08:33N 36°23' E 013°40'1111.5
2014-Mar-22 07:34N 36°28' E 013°27'1211.5
2014-Mar-22 06:33N 36°34' E 013°14'1211.7
2014-Mar-22 05:31N 36°39' E 013°01'1111.8
2014-Mar-22 04:34N 36°44' E 012°48'1311.8
2014-Mar-22 03:25N 36°50' E 012°33'1011.6
2014-Mar-22 02:33N 36°55' E 012°22'2411.8
2014-Mar-22 00:34N 37°05' E 011°56'1211.7
2014-Mar-21 23:34N 37°10' E 011°42'1111.4
2014-Mar-21 22:34N 37°15' E 011°29'1111.4
2014-Mar-21 21:33N 37°20' E 011°17'1111.3
2014-Mar-21 20:34N 37°25' E 011°04'1211.5
2014-Mar-21 19:34N 37°27' E 010°49'1211.6
2014-Mar-21 18:31N 37°30' E 010°34'1111.2
2014-Mar-21 17:30N 37°33' E 010°21'1112.0
2014-Mar-21 16:33N 37°35' E 010°07'1212.2
2014-Mar-21 15:33N 37°35' E 009°51'  
2014-Mar-18 05:31N 35°59' W 000°13'1 0.9
2014-Mar-18 04:30N 35°59' W 000°13'1 0.8
2014-Mar-18 03:31N 35°58' W 000°12'1 0.8
2014-Mar-18 02:31N 35°57' W 000°12'1 0.6
2014-Mar-18 01:31N 35°57' W 000°11'33 6.2
2014-Mar-17 20:10N 36°24' E 000°12'0 0.3
2014-Mar-17 19:16N 36°24' E 000°12'0 0.2
2014-Mar-17 18:33N 36°24' E 000°12'0 0.4
2014-Mar-17 17:33N 36°23' E 000°12'0 0.4
2014-Mar-17 16:30N 36°23' E 000°12'0 0.3
2014-Mar-17 15:33N 36°23' E 000°12'0 0.4
2014-Mar-17 14:23N 36°22' E 000°11'0 0.3
2014-Mar-17 13:33N 36°22' E 000°12'4 3.5
2014-Mar-17 12:33N 36°24' E 000°15'1110.9
2014-Mar-17 11:33N 36°30' E 000°27'1212.0
2014-Mar-17 10:33N 36°37' E 000°39'1212.0
2014-Mar-17 09:33N 36°43' E 000°52'1212.1
2014-Mar-17 08:32N 36°45' E 001°07'1212.1
2014-Mar-17 07:33N 36°49' E 001°21'2311.4
2014-Mar-17 05:33N 36°50' E 001°50'  

Dump ship's entire track history

sailing weather and tide predictions

Ce_breeze — ELSQ7 — position and weather